Time;durP1;ratioP1;P1;durP2;ratioP2;P2;SDS_P1;SDS_P2;PMS_P1;PMS_P2;Temp;Humidity;BMP_temperature;BMP_pressure;BME280_temperature;BME280_humidity;BME280_pressure;Samples;Min_cycle;Max_cycle;Signal;HPM_P1;HPM_P2
2023/04/26 05:34:29;;;;;;;3.90;1.77;;;6.50;99.90;;;;;;4953712;23;20238;-74
2023/04/26 05:36:56;;;;;;;5.37;2.60;;;6.90;99.90;;;;;;4993815;28;20297;-74
2023/04/26 05:39:23;;;;;;;4.47;1.87;;;6.90;99.90;;;;;;4993789;28;20210;-74
2023/04/26 05:41:50;;;;;;;5.10;1.93;;;6.90;99.90;;;;;;4988581;28;20313;-75
2023/04/26 05:44:17;;;;;;;8.80;2.67;;;6.90;99.90;;;;;;4992440;28;20213;-74
2023/04/26 05:46:46;;;;;;;6.80;2.80;;;6.90;99.90;;;;;;4991044;28;20682;-74
2023/04/26 05:49:12;;;;;;;5.60;1.93;;;7.20;99.90;;;;;;4992035;28;20211;-72
2023/04/26 05:51:41;;;;;;;6.27;1.97;;;8.00;99.90;;;;;;4991833;28;20313;-72
2023/04/26 05:54:08;;;;;;;4.83;2.17;;;8.70;99.90;;;;;;4991985;28;20674;-73
2023/04/26 05:56:35;;;;;;;4.73;2.17;;;9.10;99.90;;;;;;4992413;28;20273;-73
2023/04/26 05:59:02;;;;;;;3.77;1.93;;;9.40;99.90;;;;;;4991120;28;20210;-73
2023/04/26 06:01:29;;;;;;;4.83;2.10;;;9.40;99.90;;;;;;4991995;28;20230;-74
2023/04/26 06:03:56;;;;;;;6.70;1.90;;;9.60;99.90;;;;;;4992126;28;20206;-74
2023/04/26 06:06:23;;;;;;;3.87;1.97;;;9.60;99.90;;;;;;4991736;28;20233;-74
2023/04/26 06:08:51;;;;;;;3.53;2.20;;;9.50;99.90;;;;;;4992207;28;20242;-74
2023/04/26 06:11:18;;;;;;;8.77;2.20;;;9.50;99.90;;;;;;4991664;28;20591;-73
2023/04/26 06:13:46;;;;;;;3.20;1.87;;;9.50;99.90;;;;;;4991297;28;20266;-73
2023/04/26 06:16:13;;;;;;;4.97;2.30;;;9.50;99.90;;;;;;4992026;28;20302;-72
2023/04/26 06:18:40;;;;;;;5.20;2.30;;;9.70;99.90;;;;;;4991797;28;20202;-72
2023/04/26 06:21:06;;;;;;;7.50;2.60;;;9.70;99.90;;;;;;4991968;28;20321;-72
2023/04/26 06:23:33;;;;;;;6.60;3.17;;;10.00;99.90;;;;;;4991886;28;20210;-72
2023/04/26 06:26:02;;;;;;;8.13;2.57;;;10.90;99.90;;;;;;4992287;28;20206;-72
2023/04/26 06:28:29;;;;;;;4.23;2.40;;;12.10;99.90;;;;;;4991912;28;20251;-73
2023/04/26 06:30:55;;;;;;;2.97;1.83;;;12.40;99.90;;;;;;4991743;28;20230;-72
2023/04/26 06:33:22;;;;;;;4.70;1.70;;;12.40;99.90;;;;;;4992251;28;20296;-71
2023/04/26 06:35:51;;;;;;;4.93;1.90;;;12.30;99.90;;;;;;4991614;28;20277;-72
2023/04/26 06:38:18;;;;;;;2.73;1.40;;;12.00;99.90;;;;;;4991413;28;20671;-71
2023/04/26 06:40:45;;;;;;;5.43;1.80;;;11.20;99.90;;;;;;4991820;28;20718;-72
2023/04/26 06:43:13;;;;;;;3.43;1.77;;;10.60;99.90;;;;;;4991802;28;20298;-72
2023/04/26 06:45:41;;;;;;;3.83;1.40;;;10.20;99.90;;;;;;4991742;28;20686;-72
2023/04/26 06:48:07;;;;;;;4.50;1.87;;;10.10;99.90;;;;;;4991680;28;20214;-73
2023/04/26 06:50:38;;;;;;;7.07;1.83;;;10.00;99.90;;;;;;4992088;28;20262;-71
2023/04/26 06:53:05;;;;;;;2.30;1.40;;;9.80;99.90;;;;;;4991927;28;20595;-72
2023/04/26 06:55:32;;;;;;;3.67;1.63;;;9.20;99.90;;;;;;4991967;28;20238;-72
2023/04/26 06:57:59;;;;;;;4.23;1.53;;;9.00;99.90;;;;;;4991652;28;20249;-72
2023/04/26 07:00:28;;;;;;;5.00;1.40;;;9.20;99.90;;;;;;4990577;28;20292;-74
2023/04/26 07:02:55;;;;;;;3.17;1.20;;;9.20;99.90;;;;;;4989058;28;20302;-72
2023/04/26 07:05:22;;;;;;;1.30;1.03;;;9.10;99.90;;;;;;4990331;28;20675;-71
2023/04/26 07:07:49;;;;;;;4.67;1.30;;;9.50;99.90;;;;;;4991252;28;20210;-75
2023/04/26 07:10:16;;;;;;;4.33;1.10;;;9.30;99.90;;;;;;4991266;28;20227;-71
2023/04/26 07:12:43;;;;;;;3.30;1.70;;;9.80;99.90;;;;;;4990950;28;20324;-71
2023/04/26 07:15:11;;;;;;;3.17;1.40;;;10.20;99.90;;;;;;4991460;28;20277;-71
2023/04/26 07:17:39;;;;;;;2.10;1.30;;;10.50;99.90;;;;;;4991774;28;20207;-71
2023/04/26 07:20:08;;;;;;;6.90;1.70;;;10.70;99.90;;;;;;4991444;28;20568;-71
2023/04/26 07:22:35;;;;;;;3.23;1.20;;;10.40;99.90;;;;;;4991327;28;20210;-71
2023/04/26 07:25:01;;;;;;;4.53;1.30;;;9.90;99.90;;;;;;4994479;28;20237;-71
2023/04/26 07:27:30;;;;;;;4.93;1.10;;;9.50;99.90;;;;;;4996093;28;20261;-75
2023/04/26 07:29:57;;;;;;;4.40;1.10;;;9.20;99.90;;;;;;4996294;28;20269;-72
2023/04/26 07:32:24;;;;;;;3.93;1.00;;;9.10;99.90;;;;;;4996237;28;20321;-72
2023/04/26 07:34:52;;;;;;;3.00;1.10;;;9.00;99.90;;;;;;4995767;28;20301;-73
2023/04/26 07:37:19;;;;;;;6.77;1.30;;;9.20;99.90;;;;;;4996326;28;20218;-71
2023/04/26 07:39:46;;;;;;;4.73;1.13;;;9.50;99.90;;;;;;4996093;28;20698;-76
2023/04/26 07:42:13;;;;;;;5.50;1.30;;;9.80;99.90;;;;;;4996073;28;20304;-72
2023/04/26 07:44:40;;;;;;;5.17;1.23;;;9.80;99.90;;;;;;4996327;28;20294;-73
2023/04/26 07:47:12;;;;;;;3.83;1.07;;;10.10;99.90;;;;;;4996106;28;20293;-74
2023/04/26 07:49:39;;;;;;;4.83;1.13;;;10.20;99.90;;;;;;4996016;28;20225;-74
2023/04/26 07:52:08;;;;;;;5.03;1.00;;;10.40;99.90;;;;;;4996381;28;20296;-74
2023/04/26 07:54:35;;;;;;;2.93;0.90;;;10.90;99.90;;;;;;4991555;28;20635;-72
2023/04/26 07:57:03;;;;;;;2.23;0.80;;;12.00;99.90;;;;;;4995174;28;20772;-73
2023/04/26 07:59:30;;;;;;;2.87;1.03;;;11.90;99.90;;;;;;4991822;28;20591;-73
2023/04/26 08:01:57;;;;;;;3.13;1.03;;;12.10;99.90;;;;;;4994475;28;20233;-72
2023/04/26 08:04:32;;;;;;;2.33;0.90;;;12.30;99.90;;;;;;4995033;28;20245;-72
2023/04/26 08:07:00;;;;;;;3.27;0.90;;;12.50;99.90;;;;;;4995145;28;20241;-73
2023/04/26 08:09:29;;;;;;;3.27;1.00;;;12.50;99.90;;;;;;4994710;28;20211;-73
2023/04/26 08:11:56;;;;;;;2.30;0.90;;;12.50;99.90;;;;;;4994958;28;20245;-72
2023/04/26 08:14:23;;;;;;;5.30;0.77;;;12.80;99.90;;;;;;4995127;28;20341;-73
2023/04/26 08:16:51;;;;;;;1.83;0.90;;;12.70;99.90;;;;;;4995284;28;20293;-73
2023/04/26 08:19:18;;;;;;;3.30;0.90;;;12.70;99.90;;;;;;4994934;28;20210;-72
2023/04/26 08:21:45;;;;;;;1.97;0.70;;;12.90;99.90;;;;;;4995064;28;20313;-73
2023/04/26 08:24:11;;;;;;;4.20;1.10;;;13.20;99.80;;;;;;4994980;28;20234;-72
2023/04/26 08:26:40;;;;;;;3.50;0.90;;;13.10;99.80;;;;;;4995249;28;20241;-72
2023/04/26 08:29:07;;;;;;;4.20;0.90;;;13.40;99.10;;;;;;4995046;28;20687;-72
2023/04/26 08:31:34;;;;;;;2.27;1.00;;;14.00;98.10;;;;;;4994880;28;20237;-72
2023/04/26 08:34:01;;;;;;;3.63;1.50;;;14.10;97.70;;;;;;4994588;28;20242;-72
2023/04/26 08:36:28;;;;;;;2.87;0.90;;;14.10;97.10;;;;;;4993952;28;20289;-72
2023/04/26 08:38:56;;;;;;;2.13;0.80;;;14.60;97.30;;;;;;4995041;28;20298;-72
2023/04/26 08:41:24;;;;;;;2.53;1.10;;;15.40;95.30;;;;;;4994703;28;20233;-73
2023/04/26 08:43:55;;;;;;;2.73;1.00;;;15.50;95.50;;;;;;4994891;28;20206;-76
2023/04/26 08:46:23;;;;;;;2.63;1.20;;;14.80;95.90;;;;;;4994628;28;20202;-75
2023/04/26 08:49:09;;;;;;;3.20;1.10;;;15.20;95.20;;;;;;4994832;28;20285;-72
2023/04/26 08:51:37;;;;;;;2.90;1.00;;;15.60;94.60;;;;;;4994503;28;20316;-76
2023/04/26 08:54:05;;;;;;;3.93;1.27;;;15.80;95.10;;;;;;4994279;28;20316;-74
2023/04/26 08:56:34;;;;;;;3.73;1.00;;;15.80;95.20;;;;;;4994146;28;20316;-74
2023/04/26 08:59:03;;;;;;;4.47;0.90;;;16.40;94.40;;;;;;4993886;28;20211;-73
2023/04/26 09:01:31;;;;;;;1.43;0.83;;;15.80;93.00;;;;;;4994047;28;20232;-74
2023/04/26 09:04:00;;;;;;;3.17;1.03;;;15.30;94.10;;;;;;4993887;28;20679;-74
2023/04/26 09:06:27;;;;;;;3.90;1.13;;;15.60;94.30;;;;;;4994320;28;20295;-74
2023/04/26 09:08:56;;;;;;;4.97;1.00;;;14.90;94.80;;;;;;4994428;28;20206;-74
2023/04/26 09:11:23;;;;;;;3.60;1.20;;;14.60;95.60;;;;;;4993988;28;20257;-73
2023/04/26 09:13:50;;;;;;;3.73;1.70;;;15.20;94.90;;;;;;4993551;28;20330;-73
2023/04/26 09:16:18;;;;;;;4.80;1.40;;;15.20;95.20;;;;;;4994278;28;20670;-73
2023/04/26 09:18:51;;;;;;;3.50;1.33;;;14.70;95.20;;;;;;4993915;28;20214;-74
2023/04/26 09:21:19;;;;;;;2.17;1.00;;;14.80;94.90;;;;;;4993804;28;20317;-74
2023/04/26 09:23:58;;;;;;;4.63;1.13;;;14.60;94.80;;;;;;4994119;28;20213;-76
2023/04/26 09:26:25;;;;;;;3.00;1.00;;;14.70;94.40;;;;;;4994013;28;20213;-75
2023/04/26 09:29:12;;;;;;;2.37;0.93;;;15.10;95.00;;;;;;4994206;28;20202;-74
2023/04/26 09:31:42;;;;;;;2.47;0.93;;;15.30;94.90;;;;;;4994041;28;20230;-75
2023/04/26 09:34:10;;;;;;;3.17;1.17;;;15.50;94.10;;;;;;4993986;28;20266;-75
2023/04/26 09:36:51;;;;;;;2.00;0.97;;;15.30;94.40;;;;;;4993806;28;20245;-75
2023/04/26 09:39:32;;;;;;;3.30;0.90;;;15.70;93.70;;;;;;4994502;28;20206;-75
2023/04/26 09:41:59;;;;;;;4.90;1.17;;;15.80;93.20;;;;;;4993605;28;20231;-72
2023/04/26 09:44:26;;;;;;;2.17;0.90;;;16.10;93.30;;;;;;4994033;28;20579;-73
2023/04/26 09:47:08;;;;;;;4.10;0.97;;;14.80;93.70;;;;;;4993005;28;20241;-73
2023/04/26 09:49:45;;;;;;;4.33;0.90;;;14.20;94.80;;;;;;4994171;28;20213;-73
2023/04/26 09:52:12;;;;;;;2.33;1.63;;;14.60;94.30;;;;;;4993626;28;20590;-74
2023/04/26 09:54:44;;;;;;;2.10;0.90;;;14.90;94.50;;;;;;4993253;28;20278;-72
2023/04/26 09:57:12;;;;;;;4.53;1.50;;;14.30;93.20;;;;;;4993353;28;20297;-72
2023/04/26 09:59:43;;;;;;;2.60;0.80;;;14.60;93.60;;;;;;4993400;28;20309;-73
2023/04/26 10:02:16;;;;;;;2.77;1.03;;;14.90;93.00;;;;;;4993778;28;20269;-75
2023/04/26 10:04:45;;;;;;;3.10;0.80;;;15.00;93.50;;;;;;4993723;28;20210;-73
2023/04/26 10:07:13;;;;;;;1.90;0.80;;;15.10;92.70;;;;;;4993628;28;20562;-74
2023/04/26 10:09:40;;;;;;;3.80;1.00;;;14.50;92.70;;;;;;4993784;28;20293;-73
2023/04/26 10:12:08;;;;;;;3.80;1.00;;;14.50;93.30;;;;;;4993340;28;20254;-75
2023/04/26 10:14:36;;;;;;;3.07;1.07;;;14.70;93.20;;;;;;4993378;28;20325;-73
2023/04/26 10:17:04;;;;;;;2.23;0.90;;;14.40;94.00;;;;;;4993733;28;20289;-74
2023/04/26 10:19:34;;;;;;;3.60;1.00;;;14.30;94.00;;;;;;4993233;28;20216;-75
2023/04/26 10:22:05;;;;;;;1.83;1.10;;;14.00;94.60;;;;;;4993448;28;20234;-75
2023/04/26 10:24:33;;;;;;;2.23;1.23;;;14.00;93.90;;;;;;4993272;28;20208;-74
2023/04/26 10:27:02;;;;;;;2.30;1.20;;;14.30;93.90;;;;;;4993395;28;20425;-73
2023/04/26 10:30:08;;;;;;;3.17;0.97;;;13.90;93.10;;;;;;4993404;28;20626;-75
2023/04/26 10:33:16;;;;;;;4.53;0.80;;;13.80;94.50;;;;;;4993486;28;20206;-73
2023/04/26 10:36:13;;;;;;;2.47;1.00;;;14.20;94.00;;;;;;4993084;28;20218;-74
2023/04/26 10:38:41;;;;;;;2.93;0.80;;;14.50;93.20;;;;;;4993340;28;20207;-74
2023/04/26 10:41:33;;;;;;;1.60;0.70;;;14.20;93.20;;;;;;4993243;28;20309;-73
2023/04/26 10:44:48;;;;;;;1.73;0.97;;;14.10;93.40;;;;;;4993222;28;20297;-74
2023/04/26 10:47:30;;;;;;;3.10;1.20;;;14.50;93.60;;;;;;4947575;28;20257;-74
2023/04/26 10:50:06;;;;;;;2.13;1.10;;;14.40;92.80;;;;;;4992815;28;20211;-76
2023/04/26 10:52:35;;;;;;;2.83;1.00;;;14.60;91.70;;;;;;4981920;28;20202;-75
2023/04/26 10:55:04;;;;;;;1.80;1.10;;;14.60;91.50;;;;;;4979827;28;20277;-74
2023/04/26 10:57:51;;;;;;;2.03;1.10;;;14.70;91.80;;;;;;4984138;28;20258;-75
2023/04/26 11:00:26;;;;;;;2.83;1.10;;;14.40;92.00;;;;;;4986229;28;20222;-76
2023/04/26 11:03:14;;;;;;;3.50;1.00;;;13.80;92.30;;;;;;4986317;28;20211;-74
2023/04/26 11:05:55;;;;;;;2.87;1.00;;;12.90;93.10;;;;;;4990447;28;20308;-73
2023/04/26 11:08:28;;;;;;;2.70;1.07;;;12.30;93.80;;;;;;4984497;28;20199;-74
2023/04/26 11:11:16;;;;;;;3.27;0.90;;;12.00;93.50;;;;;;4987783;28;20226;-74
2023/04/26 11:13:43;;;;;;;2.77;1.90;;;11.80;93.90;;;;;;4988806;28;20257;-73
2023/04/26 11:16:11;;;;;;;1.50;1.00;;;11.90;93.60;;;;;;4984434;28;20238;-74
2023/04/26 11:18:41;;;;;;;3.20;1.07;;;12.20;92.90;;;;;;4994615;28;20204;-74
2023/04/26 11:21:09;;;;;;;2.97;1.10;;;12.50;92.80;;;;;;4990841;28;20233;-73
2023/04/26 11:23:38;;;;;;;1.77;0.77;;;12.70;93.10;;;;;;4993022;28;20243;-73
2023/04/26 11:26:07;;;;;;;2.03;0.87;;;13.10;94.40;;;;;;4988066;28;20301;-72
2023/04/26 11:28:35;;;;;;;1.97;1.03;;;13.10;92.20;;;;;;4989688;28;20233;-73
2023/04/26 11:31:02;;;;;;;3.37;1.33;;;12.90;92.70;;;;;;4994765;28;20650;-73
2023/04/26 11:33:30;;;;;;;2.80;1.40;;;12.50;91.80;;;;;;4988754;28;20229;-74
2023/04/26 11:35:57;;;;;;;1.90;1.10;;;12.60;93.10;;;;;;4993434;28;20214;-73
2023/04/26 11:38:25;;;;;;;2.50;0.80;;;12.70;92.70;;;;;;4988420;28;20246;-72
2023/04/26 11:40:58;;;;;;;2.47;1.30;;;12.80;92.90;;;;;;4984548;28;20302;-73
2023/04/26 11:43:35;;;;;;;3.70;1.00;;;12.90;92.50;;;;;;4987911;28;20266;-73
2023/04/26 11:46:02;;;;;;;1.40;1.03;;;12.70;92.30;;;;;;4989129;28;20254;-73
2023/04/26 11:48:30;;;;;;;3.03;1.10;;;12.90;92.70;;;;;;4983060;28;20294;-73
2023/04/26 11:50:58;;;;;;;1.37;1.00;;;12.90;91.70;;;;;;4983715;28;20219;-73
2023/04/26 11:53:25;;;;;;;3.93;1.03;;;13.10;91.30;;;;;;4986476;28;20221;-73
2023/04/26 11:55:52;;;;;;;2.80;0.90;;;13.50;91.20;;;;;;4985008;28;20810;-73
2023/04/26 11:58:20;;;;;;;1.67;1.10;;;13.60;90.40;;;;;;4988293;28;20203;-72
2023/04/26 12:00:57;;;;;;;1.93;1.00;;;13.60;91.30;;;;;;4985801;28;20222;-72
2023/04/26 12:03:28;;;;;;;1.10;0.80;;;13.60;91.50;;;;;;4987822;28;20198;-72
2023/04/26 12:05:55;;;;;;;2.70;1.30;;;13.50;91.70;;;;;;4985171;28;20277;-71
2023/04/26 12:08:24;;;;;;;1.63;1.00;;;13.30;91.60;;;;;;4986423;28;20602;-71
2023/04/26 12:10:51;;;;;;;2.80;1.20;;;13.00;93.00;;;;;;4983254;28;20310;-72
2023/04/26 12:13:20;;;;;;;2.07;0.90;;;13.10;91.80;;;;;;4984241;28;20706;-72
2023/04/26 12:15:49;;;;;;;3.67;1.10;;;12.90;91.20;;;;;;4984129;28;20775;-73
2023/04/26 12:18:16;;;;;;;4.10;1.40;;;12.90;90.80;;;;;;4986042;28;20683;-72
2023/04/26 12:20:45;;;;;;;1.97;1.30;;;13.10;91.60;;;;;;4983568;28;20548;-72
2023/04/26 12:23:14;;;;;;;2.43;1.23;;;13.30;91.00;;;;;;4984767;28;20199;-72
2023/04/26 12:25:42;;;;;;;1.30;1.03;;;13.30;91.70;;;;;;4983375;28;20251;-72
2023/04/26 12:28:12;;;;;;;4.17;1.10;;;13.10;91.00;;;;;;4987293;28;20284;-73
2023/04/26 12:30:40;;;;;;;2.90;1.10;;;13.30;91.00;;;;;;4984950;28;20265;-73
2023/04/26 12:33:07;;;;;;;1.70;1.00;;;13.20;91.40;;;;;;4984120;28;20290;-72
2023/04/26 12:35:35;;;;;;;1.30;1.10;;;13.10;91.80;;;;;;4982476;28;20317;-71
2023/04/26 12:38:02;;;;;;;1.93;1.00;;;13.30;90.90;;;;;;4985973;28;20207;-72
2023/04/26 12:40:29;;;;;;;1.73;1.00;;;13.50;90.60;;;;;;4984514;28;20257;-73
2023/04/26 12:42:57;;;;;;;1.57;0.93;;;13.50;91.00;;;;;;4984898;28;20195;-71
2023/04/26 12:45:25;;;;;;;3.60;1.70;;;13.40;91.80;;;;;;4983582;28;20245;-71
2023/04/26 12:47:55;;;;;;;4.93;2.10;;;13.60;91.60;;;;;;4984541;28;20606;-73
2023/04/26 12:50:22;;;;;;;1.63;0.90;;;13.90;91.60;;;;;;4985028;28;20313;-71
2023/04/26 12:52:49;;;;;;;2.90;0.90;;;14.00;91.00;;;;;;4986453;28;20746;-70
2023/04/26 12:55:16;;;;;;;3.07;1.23;;;13.60;90.70;;;;;;4984928;28;20377;-72
2023/04/26 12:57:44;;;;;;;1.97;0.90;;;13.40;91.30;;;;;;4986379;28;20290;-74
2023/04/26 13:00:13;;;;;;;3.23;1.10;;;13.50;90.60;;;;;;4982979;28;20273;-70
2023/04/26 13:02:40;;;;;;;4.13;1.37;;;13.40;91.00;;;;;;4983583;28;20671;-73
2023/04/26 13:05:09;;;;;;;3.67;1.40;;;13.60;92.90;;;;;;4984632;28;20212;-72
2023/04/26 13:07:39;;;;;;;3.27;1.23;;;13.70;93.20;;;;;;4984826;28;20243;-73
2023/04/26 13:10:09;;;;;;;1.87;1.03;;;13.60;94.10;;;;;;4982826;28;20223;-72
2023/04/26 13:12:36;;;;;;;4.60;1.20;;;13.70;93.60;;;;;;4983635;28;20199;-74
2023/04/26 13:15:04;;;;;;;2.13;1.10;;;13.70;94.10;;;;;;4984377;28;20255;-74
2023/04/26 13:17:31;;;;;;;2.90;1.27;;;13.80;93.40;;;;;;4982949;28;20203;-74
2023/04/26 13:19:58;;;;;;;4.70;1.00;;;14.20;93.00;;;;;;4983553;28;20198;-74
2023/04/26 13:22:26;;;;;;;4.20;1.50;;;14.40;92.50;;;;;;4984344;28;20238;-74
2023/04/26 13:24:53;;;;;;;1.87;1.37;;;14.00;92.10;;;;;;4983239;28;20280;-74
2023/04/26 13:27:20;;;;;;;1.73;0.90;;;13.80;92.20;;;;;;4983417;28;20281;-73
2023/04/26 13:29:47;;;;;;;1.13;0.83;;;13.90;91.60;;;;;;4984731;28;20281;-74
2023/04/26 13:32:14;;;;;;;4.40;1.70;;;13.80;91.70;;;;;;4983223;28;20278;-74
2023/04/26 13:34:41;;;;;;;4.13;1.30;;;13.40;92.10;;;;;;4981697;28;20325;-74
2023/04/26 13:37:09;;;;;;;1.83;1.20;;;13.10;92.40;;;;;;4977688;28;20687;-74
2023/04/26 13:39:37;;;;;;;2.20;1.33;;;13.50;92.60;;;;;;4976066;28;20697;-73
2023/04/26 13:42:04;;;;;;;4.77;1.10;;;13.80;91.20;;;;;;4974672;28;20310;-74
2023/04/26 13:44:31;;;;;;;2.27;0.97;;;14.00;91.70;;;;;;4978368;28;20211;-73
2023/04/26 13:46:59;;;;;;;2.37;1.17;;;13.80;91.50;;;;;;4991748;28;20257;-73
2023/04/26 13:49:26;;;;;;;3.97;1.37;;;13.90;91.40;;;;;;4992287;28;20216;-73
2023/04/26 13:51:53;;;;;;;4.07;2.07;;;13.80;91.50;;;;;;4993073;28;20261;-74
2023/04/26 13:54:21;;;;;;;2.37;1.13;;;13.80;91.40;;;;;;4993777;28;20242;-74
2023/04/26 13:56:50;;;;;;;1.73;1.10;;;13.70;91.90;;;;;;4993176;28;20210;-74
2023/04/26 13:59:17;;;;;;;2.23;1.10;;;13.70;92.10;;;;;;4993279;28;20237;-75
2023/04/26 14:01:45;;;;;;;5.60;1.37;;;13.80;92.10;;;;;;4992983;28;20673;-75
2023/04/26 14:04:12;;;;;;;4.13;1.67;;;13.90;92.40;;;;;;4993111;28;20249;-73
2023/04/26 14:06:39;;;;;;;3.43;1.73;;;14.10;91.70;;;;;;4993540;28;20249;-73
2023/04/26 14:09:05;;;;;;;2.40;1.23;;;14.30;91.90;;;;;;4993290;28;20246;-74
2023/04/26 14:11:32;;;;;;;4.20;1.47;;;14.10;92.10;;;;;;4993515;28;20318;-75
2023/04/26 14:14:01;;;;;;;2.17;1.47;;;14.20;91.70;;;;;;4993539;28;20290;-74
2023/04/26 14:16:27;;;;;;;3.10;1.53;;;14.20;91.80;;;;;;4993332;28;20324;-74
2023/04/26 14:18:54;;;;;;;4.23;1.77;;;14.30;91.50;;;;;;4993498;28;20285;-73
2023/04/26 14:21:21;;;;;;;1.80;1.10;;;14.40;92.10;;;;;;4993035;28;20313;-74
2023/04/26 14:23:48;;;;;;;1.20;0.90;;;14.40;91.80;;;;;;4993039;28;20300;-74
2023/04/26 14:26:16;;;;;;;1.97;1.40;;;14.10;92.10;;;;;;4992786;28;20238;-74
2023/04/26 14:28:43;;;;;;;2.80;1.40;;;14.00;91.30;;;;;;4993168;28;20211;-75
2023/04/26 14:31:11;;;;;;;4.23;1.30;;;14.20;91.00;;;;;;4993183;28;20307;-74
2023/04/26 14:33:38;;;;;;;2.97;1.47;;;14.40;91.70;;;;;;4993789;28;20210;-75
2023/04/26 14:36:07;;;;;;;3.67;1.40;;;14.00;91.40;;;;;;4997019;28;20714;-74
2023/04/26 14:38:34;;;;;;;3.00;1.30;;;14.00;91.40;;;;;;4997347;28;20214;-74
2023/04/26 14:41:00;;;;;;;3.57;1.40;;;13.80;91.60;;;;;;4996732;28;20272;-75
2023/04/26 14:43:27;;;;;;;2.47;1.40;;;13.70;91.90;;;;;;4997004;28;20297;-75
2023/04/26 14:45:54;;;;;;;2.10;1.17;;;13.80;92.20;;;;;;4996750;28;20306;-75
2023/04/26 14:48:22;;;;;;;4.43;1.20;;;13.80;91.00;;;;;;4997136;28;20210;-75
2023/04/26 14:50:49;;;;;;;5.07;1.57;;;13.60;91.80;;;;;;4996849;28;20644;-74
2023/04/26 14:53:16;;;;;;;5.00;1.43;;;13.70;91.60;;;;;;4996939;28;20289;-74
2023/04/26 14:55:43;;;;;;;2.37;1.13;;;13.30;91.80;;;;;;4996631;28;20330;-74
2023/04/26 14:58:10;;;;;;;2.03;1.20;;;13.40;92.10;;;;;;4996855;28;20238;-72
2023/04/26 15:00:37;;;;;;;2.97;1.30;;;13.60;92.00;;;;;;4996856;28;20313;-75
2023/04/26 15:03:04;;;;;;;3.40;1.80;;;13.70;91.70;;;;;;4997030;28;20208;-74
2023/04/26 15:05:33;;;;;;;3.73;1.60;;;13.90;92.90;;;;;;4996426;28;20265;-74
2023/04/26 15:08:00;;;;;;;3.10;1.50;;;14.00;92.70;;;;;;4996612;28;20210;-73
2023/04/26 15:10:27;;;;;;;2.90;1.43;;;14.10;92.40;;;;;;4996671;28;20258;-74
2023/04/26 15:12:55;;;;;;;4.17;1.73;;;14.20;91.90;;;;;;4996892;28;20289;-73
2023/04/26 15:15:22;;;;;;;2.63;1.30;;;14.30;91.20;;;;;;4996631;28;20281;-74
2023/04/26 15:17:48;;;;;;;1.77;1.13;;;14.60;91.40;;;;;;4996544;28;20261;-75
2023/04/26 15:20:16;;;;;;;1.93;1.40;;;14.70;91.20;;;;;;4996321;28;20222;-74
2023/04/26 15:22:44;;;;;;;5.50;1.53;;;14.50;90.90;;;;;;4996415;28;20224;-75
2023/04/26 15:25:11;;;;;;;5.70;1.67;;;14.60;90.50;;;;;;4996491;28;20217;-75
2023/04/26 15:27:38;;;;;;;2.20;1.20;;;14.40;90.50;;;;;;4996143;28;20301;-74
2023/04/26 15:30:07;;;;;;;2.60;1.30;;;14.30;91.30;;;;;;4996002;28;20226;-75
2023/04/26 15:32:34;;;;;;;5.13;1.77;;;13.90;91.10;;;;;;4995838;28;20206;-75
2023/04/26 15:35:01;;;;;;;5.03;1.60;;;13.90;90.70;;;;;;4995748;28;20749;-75
2023/04/26 15:37:28;;;;;;;2.67;1.47;;;13.40;91.10;;;;;;4996443;28;20379;-75
2023/04/26 15:39:56;;;;;;;4.00;1.60;;;13.10;91.30;;;;;;4996269;28;20260;-75
2023/04/26 15:42:23;;;;;;;3.83;1.33;;;13.00;91.30;;;;;;4995766;28;20314;-73
2023/04/26 15:44:50;;;;;;;2.90;2.00;;;12.90;91.00;;;;;;4995970;28;20293;-73
2023/04/26 15:47:17;;;;;;;2.40;1.63;;;13.10;91.90;;;;;;4995791;28;20293;-73
2023/04/26 15:49:44;;;;;;;1.60;1.20;;;13.20;91.60;;;;;;4995650;28;20814;-73
2023/04/26 15:52:11;;;;;;;2.87;1.60;;;13.20;91.50;;;;;;4996135;28;20238;-73
2023/04/26 15:54:37;;;;;;;2.53;1.20;;;13.30;91.50;;;;;;4995977;28;20302;-74
2023/04/26 15:57:06;;;;;;;4.10;1.53;;;13.40;91.80;;;;;;4995764;28;20325;-73
2023/04/26 15:59:33;;;;;;;3.20;1.40;;;13.40;92.00;;;;;;4995097;28;20214;-74
2023/04/26 16:02:00;;;;;;;4.20;1.40;;;13.40;91.10;;;;;;4995252;28;20226;-74
2023/04/26 16:04:27;;;;;;;2.77;1.57;;;13.40;91.40;;;;;;4994778;28;20207;-73
2023/04/26 16:06:54;;;;;;;3.90;1.60;;;13.50;90.50;;;;;;4994837;28;20260;-73
2023/04/26 16:09:21;;;;;;;3.77;1.07;;;13.80;90.50;;;;;;4994884;28;20238;-75
2023/04/26 16:11:48;;;;;;;5.13;1.70;;;13.80;90.70;;;;;;4995202;28;20308;-74
2023/04/26 16:14:16;;;;;;;3.07;1.23;;;13.90;90.20;;;;;;4995258;28;20293;-74
2023/04/26 16:16:44;;;;;;;3.03;1.33;;;13.80;90.80;;;;;;4995184;28;20233;-74
2023/04/26 16:19:11;;;;;;;3.50;1.23;;;13.50;92.40;;;;;;4995279;28;20257;-74
2023/04/26 16:21:39;;;;;;;4.70;1.50;;;13.20;92.70;;;;;;4994822;28;20309;-74
2023/04/26 16:24:07;;;;;;;3.50;1.30;;;13.20;92.90;;;;;;4995214;28;20213;-75
2023/04/26 16:26:34;;;;;;;4.13;1.60;;;13.40;93.00;;;;;;4995101;28;20218;-74
2023/04/26 16:29:02;;;;;;;4.30;1.50;;;13.50;93.00;;;;;;4995079;28;20270;-74
2023/04/26 16:31:31;;;;;;;2.60;1.43;;;13.50;92.50;;;;;;4994780;28;20229;-74
2023/04/26 16:33:58;;;;;;;4.77;1.53;;;13.40;92.70;;;;;;4995195;28;20217;-75
2023/04/26 16:36:26;;;;;;;5.07;1.90;;;13.40;92.70;;;;;;4994747;28;20328;-75
2023/04/26 16:38:53;;;;;;;2.30;1.30;;;13.50;92.30;;;;;;4995207;28;20209;-75
2023/04/26 16:41:21;;;;;;;4.23;1.40;;;13.50;92.50;;;;;;4994890;28;20333;-75
2023/04/26 16:43:51;;;;;;;4.60;1.80;;;13.30;92.50;;;;;;4994919;28;20210;-75
2023/04/26 16:46:18;;;;;;;4.37;1.60;;;13.30;92.40;;;;;;4994925;28;20217;-74
2023/04/26 16:48:46;;;;;;;2.40;1.60;;;12.90;92.70;;;;;;4995209;28;20713;-74
2023/04/26 16:51:13;;;;;;;2.90;1.50;;;12.60;92.80;;;;;;4994774;28;20257;-75
2023/04/26 16:53:40;;;;;;;2.97;1.33;;;12.70;93.10;;;;;;4994666;28;20293;-75
2023/04/26 16:56:08;;;;;;;3.20;1.70;;;12.80;92.80;;;;;;4993990;28;20293;-75
2023/04/26 16:58:35;;;;;;;4.00;1.50;;;12.90;93.40;;;;;;4994318;28;20685;-75
2023/04/26 17:01:01;;;;;;;5.07;1.40;;;12.80;92.80;;;;;;4994563;28;20314;-75
2023/04/26 17:03:28;;;;;;;5.80;1.60;;;12.70;92.70;;;;;;4994766;28;20246;-75
2023/04/26 17:05:57;;;;;;;3.33;1.20;;;13.00;92.90;;;;;;4994443;28;20246;-73
2023/04/26 17:08:23;;;;;;;2.13;1.27;;;13.30;93.00;;;;;;4994601;28;20269;-75
2023/04/26 17:10:50;;;;;;;4.47;1.60;;;13.20;93.10;;;;;;4993958;28;20230;-74
2023/04/26 17:13:17;;;;;;;3.57;1.47;;;13.10;93.10;;;;;;4994574;28;20237;-75
2023/04/26 17:15:44;;;;;;;4.57;1.17;;;13.30;93.00;;;;;;4994286;28;20226;-74
2023/04/26 17:18:11;;;;;;;4.50;1.57;;;13.30;93.20;;;;;;4994468;28;20214;-74
2023/04/26 17:20:38;;;;;;;3.60;1.60;;;13.20;93.20;;;;;;4994282;28;20319;-75
2023/04/26 17:23:07;;;;;;;2.00;1.40;;;12.90;93.70;;;;;;4994276;28;20234;-75
2023/04/26 17:25:34;;;;;;;4.83;1.60;;;12.80;93.70;;;;;;4994138;28;20215;-75
2023/04/26 17:28:01;;;;;;;6.03;1.57;;;12.90;93.50;;;;;;4994425;28;20206;-74
2023/04/26 17:30:28;;;;;;;3.63;1.50;;;13.00;93.10;;;;;;4994763;28;20272;-75
2023/04/26 17:32:55;;;;;;;2.03;1.30;;;13.10;93.50;;;;;;4994182;28;20257;-74
2023/04/26 17:35:22;;;;;;;3.03;1.20;;;12.80;93.00;;;;;;4993891;28;20264;-75
2023/04/26 17:37:49;;;;;;;3.50;1.20;;;12.50;93.50;;;;;;4993921;28;20241;-75
2023/04/26 17:40:18;;;;;;;2.27;1.40;;;12.30;93.50;;;;;;4993889;28;20599;-75
2023/04/26 17:42:45;;;;;;;3.73;1.30;;;12.30;93.80;;;;;;4993842;28;20207;-76
2023/04/26 17:45:12;;;;;;;1.70;1.23;;;12.30;93.90;;;;;;4994026;28;20229;-75
2023/04/26 17:47:40;;;;;;;2.40;1.30;;;12.20;94.10;;;;;;4993906;28;20206;-74
2023/04/26 17:50:07;;;;;;;2.57;1.30;;;12.20;94.40;;;;;;4993537;28;20233;-75
2023/04/26 17:52:34;;;;;;;3.57;1.50;;;12.30;94.30;;;;;;4993837;28;20269;-73
2023/04/26 17:55:01;;;;;;;3.17;1.27;;;12.30;94.40;;;;;;4993771;28;20249;-75
2023/04/26 17:57:30;;;;;;;1.90;1.47;;;12.30;94.50;;;;;;4993699;28;20316;-75
2023/04/26 17:59:56;;;;;;;3.40;1.50;;;12.10;94.90;;;;;;4993268;28;20293;-74
2023/04/26 18:02:23;;;;;;;3.40;1.70;;;11.90;95.00;;;;;;4993500;28;20675;-74
2023/04/26 18:04:50;;;;;;;2.97;1.30;;;11.90;95.20;;;;;;4993692;28;20734;-74
2023/04/26 18:07:18;;;;;;;4.07;1.60;;;12.00;94.90;;;;;;4993384;28;20234;-73
2023/04/26 18:09:45;;;;;;;3.30;1.63;;;12.00;94.70;;;;;;4993330;28;20211;-75
2023/04/26 18:12:12;;;;;;;3.23;1.40;;;11.90;95.00;;;;;;4993924;28;20289;-72
2023/04/26 18:14:43;;;;;;;4.30;1.80;;;11.80;95.50;;;;;;4993534;28;20210;-73
2023/04/26 18:17:11;;;;;;;4.17;1.57;;;11.80;95.70;;;;;;4993389;28;20234;-73
2023/04/26 18:19:38;;;;;;;3.03;1.73;;;11.90;95.50;;;;;;4993492;28;20210;-74
2023/04/26 18:22:06;;;;;;;3.70;2.10;;;11.90;95.60;;;;;;4993554;28;20238;-74
2023/04/26 18:24:33;;;;;;;2.43;1.50;;;11.90;95.60;;;;;;4993407;28;20598;-74
2023/04/26 18:26:59;;;;;;;5.87;2.43;;;11.80;95.60;;;;;;4989668;28;20894;-74
2023/04/26 18:29:26;;;;;;;3.53;1.53;;;11.60;96.00;;;;;;4977841;28;20629;-74